createdAt,value
2022-08-11T00:01:54.170Z,94319.16
2022-08-11T00:04:24.628Z,94318.16
2022-08-11T00:06:54.843Z,94327.63
2022-08-11T00:09:31.654Z,94317.13
2022-08-11T00:12:14.782Z,94315.81
2022-08-11T00:14:42.806Z,94314.91
2022-08-11T00:17:13.110Z,94318.09
2022-08-11T00:20:14.529Z,94313.44
2022-08-11T00:22:33.261Z,94321.13
2022-08-11T00:25:10.043Z,94320.66
2022-08-11T00:27:38.429Z,94325.63
2022-08-11T00:30:06.992Z,94317.44
2022-08-11T00:32:34.699Z,94315.22
2022-08-11T00:35:51.439Z,94325.84
2022-08-11T00:37:52.363Z,94311.66
2022-08-11T00:40:28.283Z,94302.41
2022-08-11T00:43:20.475Z,94305.06
2022-08-11T00:46:09.185Z,94294.38
2022-08-11T00:49:00.828Z,94296.25
2022-08-11T00:52:04.707Z,94293.75
2022-08-11T00:55:00.462Z,94292.84
2022-08-11T00:58:11.707Z,94296.38
2022-08-11T01:01:05.645Z,94300.13
2022-08-11T01:04:10.997Z,94300.25
2022-08-11T01:07:01.274Z,94297.72
2022-08-11T01:09:52.288Z,94291.59
2022-08-11T01:12:29.526Z,94301.31
2022-08-11T01:15:20.951Z,94299.75
2022-08-11T01:18:12.186Z,94291.13
2022-08-11T01:21:09.126Z,94292.34
2022-08-11T01:23:54.131Z,94291.34
2022-08-11T01:26:39.421Z,94291.97
2022-08-11T01:29:49.400Z,94292.84
2022-08-11T01:32:29.336Z,94292.06
2022-08-11T01:35:07.905Z,94291.25
2022-08-11T01:38:14.971Z,94289.94
2022-08-11T01:41:15.318Z,94295.56
2022-08-11T01:44:12.746Z,94285.84
2022-08-11T01:46:57.979Z,94284.03
2022-08-11T01:50:06.828Z,94282.59
2022-08-11T01:52:42.997Z,94281.56
2022-08-11T01:55:40.160Z,94276.34
2022-08-11T01:58:59.410Z,94284.56
2022-08-11T02:01:32.732Z,94283.47
2022-08-11T02:04:42.418Z,94287.88
2022-08-11T02:07:40.335Z,94283.69
2022-08-11T02:10:55.746Z,94281.75
2022-08-11T02:13:40.854Z,94284.38
2022-08-11T02:16:23.020Z,94280.44
2022-08-11T02:19:14.562Z,94276.56
2022-08-11T02:22:21.958Z,94280.16
2022-08-11T02:25:06.113Z,94284.34
2022-08-11T02:28:19.615Z,94284.28
2022-08-11T02:32:11.109Z,94281.06
2022-08-11T02:34:28.780Z,94287.50
2022-08-11T02:37:00.453Z,94284.50
2022-08-11T02:39:43.674Z,94287.53
2022-08-11T02:42:44.195Z,94278.44
2022-08-11T02:45:38.901Z,94286.56
2022-08-11T02:49:09.290Z,94277.91
2022-08-11T02:51:53.929Z,94278.19
2022-08-11T02:54:42.789Z,94285.50
2022-08-11T02:57:22.274Z,94277.41
2022-08-11T03:00:07.654Z,94267.66
2022-08-11T03:02:55.873Z,94265.81
2022-08-11T03:06:00.639Z,94271.66
2022-08-11T03:08:52.634Z,94282.59
2022-08-11T03:12:05.085Z,94279.00
2022-08-11T03:15:01.696Z,94282.06
2022-08-11T03:17:47.723Z,94279.66
2022-08-11T03:20:26.368Z,94284.25
2022-08-11T03:23:29.886Z,94292.19
2022-08-11T03:26:33.467Z,94279.13
2022-08-11T03:29:24.959Z,94291.13
2022-08-11T03:32:20.456Z,94284.47
2022-08-11T03:34:49.279Z,94276.91
2022-08-11T03:38:03.350Z,94275.63
2022-08-11T03:42:01.433Z,94275.56
2022-08-11T03:44:28.149Z,94282.94
2022-08-11T03:47:00.730Z,94278.94
2022-08-11T03:49:46.161Z,94280.69
2022-08-11T03:52:48.498Z,94286.16
2022-08-11T03:55:21.280Z,94285.06
2022-08-11T03:58:00.009Z,94278.59
2022-08-11T04:00:52.917Z,94290.00
2022-08-11T04:03:33.682Z,94290.44
2022-08-11T04:06:34.471Z,94289.75
2022-08-11T04:09:24.016Z,94291.16
2022-08-11T04:11:54.204Z,94284.84
2022-08-11T04:15:07.447Z,94288.81
2022-08-11T04:18:24.745Z,94291.56
2022-08-11T04:21:06.387Z,94276.72
2022-08-11T04:24:34.642Z,94278.03
2022-08-11T04:26:56.037Z,94290.44
2022-08-11T04:30:03.577Z,94293.13
2022-08-11T04:33:03.677Z,94287.28
2022-08-11T04:35:50.769Z,94290.34
2022-08-11T04:38:54.972Z,94297.19
2022-08-11T04:41:33.691Z,94293.75
2022-08-11T04:44:12.948Z,94298.38
2022-08-11T04:47:05.832Z,94300.75
2022-08-11T04:50:18.856Z,94303.25
2022-08-11T04:53:25.186Z,94296.03
2022-08-11T04:56:28.743Z,94303.69
2022-08-11T04:59:36.412Z,94308.41
2022-08-11T05:02:29.244Z,94303.19
2022-08-11T05:05:34.147Z,94300.13
2022-08-11T05:08:23.888Z,94302.78
2022-08-11T05:11:05.773Z,94305.31
2022-08-11T05:13:53.691Z,94299.28
2022-08-11T05:16:46.138Z,94301.28
2022-08-11T05:19:39.386Z,94298.16
2022-08-11T05:22:28.829Z,94296.97
2022-08-11T05:26:42.670Z,94300.44
2022-08-11T05:28:55.443Z,94296.97
2022-08-11T05:31:53.631Z,94297.06
2022-08-11T05:34:46.332Z,94296.09
2022-08-11T05:37:27.578Z,94299.34
2022-08-11T05:40:33.306Z,94299.91
2022-08-11T05:43:21.271Z,94296.84
2022-08-11T05:46:21.684Z,94303.13
2022-08-11T05:49:08.007Z,94294.84
2022-08-11T05:52:05.880Z,94296.84
2022-08-11T05:55:00.116Z,94294.41
2022-08-11T05:57:48.317Z,94302.47
2022-08-11T06:00:20.973Z,94301.66
2022-08-11T06:03:01.026Z,94291.31
2022-08-11T06:05:38.396Z,94299.06
2022-08-11T06:08:12.488Z,94300.63
2022-08-11T06:10:43.651Z,94288.47
2022-08-11T06:13:14.911Z,94289.66
2022-08-11T06:15:50.133Z,94295.94
2022-08-11T06:18:18.203Z,94282.25
2022-08-11T06:20:55.009Z,94286.91
2022-08-11T06:23:25.109Z,94283.41
2022-08-11T06:25:53.243Z,94286.69
2022-08-11T06:28:32.870Z,94286.09
2022-08-11T06:31:00.787Z,94286.03
2022-08-11T06:33:39.875Z,94281.19
2022-08-11T06:36:31.402Z,94284.31
2022-08-11T06:39:06.970Z,94280.06
2022-08-11T06:41:44.660Z,94283.53
2022-08-11T06:44:13.907Z,94286.09
2022-08-11T06:46:51.414Z,94281.91
2022-08-11T06:49:39.793Z,94288.63
2022-08-11T06:52:35.277Z,94287.63
2022-08-11T06:55:06.669Z,94278.25
2022-08-11T06:58:02.364Z,94288.31
2022-08-11T07:00:33.462Z,94291.13
2022-08-11T07:03:12.869Z,94286.06
2022-08-11T07:05:44.023Z,94281.34
2022-08-11T07:19:27.175Z,94293.66
2022-08-11T07:22:14.851Z,94298.16
2022-08-11T07:25:06.042Z,94287.75
2022-08-11T07:28:01.059Z,94295.16
2022-08-11T07:30:28.926Z,94292.91
2022-08-11T07:32:58.141Z,94290.81
2022-08-11T07:35:34.505Z,94295.53
2022-08-11T07:38:06.900Z,94300.16
2022-08-11T07:40:35.478Z,94291.88
2022-08-11T07:43:03.997Z,94294.09
2022-08-11T07:45:50.226Z,94290.41
2022-08-11T07:48:36.133Z,94287.09
2022-08-11T07:51:21.875Z,94281.00
2022-08-11T07:53:57.926Z,94287.13
2022-08-11T07:56:49.839Z,94290.53
2022-08-11T08:00:00.064Z,94286.88
2022-08-11T08:02:37.470Z,94288.06
2022-08-11T08:05:25.500Z,94283.78
2022-08-11T08:08:10.735Z,94272.75
2022-08-11T08:10:57.548Z,94280.66
2022-08-11T08:13:42.718Z,94283.66
2022-08-11T08:16:30.026Z,94278.81
2022-08-11T08:18:57.115Z,94285.34
2022-08-11T08:21:23.985Z,94278.44
2022-08-11T08:23:53.730Z,94276.47
2022-08-11T08:26:42.207Z,94271.31
2022-08-11T08:29:38.648Z,94282.28
2022-08-11T08:32:07.115Z,94276.69
2022-08-11T08:34:37.044Z,94265.88
2022-08-11T08:37:15.720Z,94266.72
2022-08-11T08:39:53.377Z,94269.47
2022-08-11T08:42:24.548Z,94268.81
2022-08-11T08:44:59.263Z,94268.72
2022-08-11T08:47:42.249Z,94259.91
2022-08-11T08:50:27.355Z,94263.31
2022-08-11T08:53:05.815Z,94267.72
2022-08-11T08:55:33.786Z,94261.38
2022-08-11T08:58:01.057Z,94262.25
2022-08-11T09:00:40.136Z,94259.53
2022-08-11T09:03:35.978Z,94257.53
2022-08-11T09:06:00.919Z,94250.53
2022-08-11T09:08:30.767Z,94259.75
2022-08-11T09:11:17.414Z,94252.47
2022-08-11T09:13:46.800Z,94252.72
2022-08-11T09:16:31.876Z,94248.34
2022-08-11T09:19:01.341Z,94254.03
2022-08-11T09:21:39.365Z,94246.59
2022-08-11T09:24:36.077Z,94253.81
2022-08-11T09:27:07.530Z,94253.94
2022-08-11T09:29:35.536Z,94250.97
2022-08-11T09:32:02.976Z,94246.69
2022-08-11T09:34:30.228Z,94245.94
2022-08-11T09:37:28.298Z,94247.25
2022-08-11T09:40:27.351Z,94227.28
2022-08-11T09:43:13.715Z,94235.44
2022-08-11T09:45:40.819Z,94234.28
2022-08-11T09:48:08.055Z,94243.13
2022-08-11T09:50:36.100Z,94238.25
2022-08-11T09:53:35.923Z,94236.19
2022-08-11T09:55:53.609Z,94223.78
2022-08-11T09:58:42.122Z,94225.63
2022-08-11T10:01:27.323Z,94225.75
2022-08-11T10:04:09.528Z,94218.13
2022-08-11T10:06:58.138Z,94221.41
2022-08-11T10:09:26.317Z,94220.50
2022-08-11T10:11:59.483Z,94203.53
2022-08-11T10:14:46.738Z,94211.34
2022-08-11T10:17:16.094Z,94221.16
2022-08-11T10:19:45.398Z,94217.66
2022-08-11T10:22:50.593Z,94211.34
2022-08-11T10:25:36.338Z,94217.59
2022-08-11T10:28:32.686Z,94208.38
2022-08-11T10:31:13.718Z,94219.56
2022-08-11T10:34:00.466Z,94222.03
2022-08-11T10:36:33.112Z,94211.13
2022-08-11T10:39:01.410Z,94208.50
2022-08-11T10:42:06.079Z,94212.19
2022-08-11T10:44:44.950Z,94211.72
2022-08-11T10:47:31.731Z,94198.19
2022-08-11T10:50:17.847Z,94198.47
2022-08-11T10:53:06.623Z,94191.38
2022-08-11T10:55:53.405Z,94200.00
2022-08-11T10:58:40.674Z,94184.97
2022-08-11T11:01:09.023Z,94192.28
2022-08-11T11:03:37.176Z,94192.50
2022-08-11T11:06:27.808Z,94188.28
2022-08-11T11:09:04.333Z,94183.81
2022-08-11T11:11:54.533Z,94176.91
2022-08-11T11:14:46.058Z,94180.75
2022-08-11T11:17:57.262Z,94180.50
2022-08-11T11:20:34.730Z,94180.13
2022-08-11T11:23:20.157Z,94175.28
2022-08-11T11:26:10.438Z,94183.09
2022-08-11T11:29:01.125Z,94172.84
2022-08-11T11:31:53.131Z,94183.97
2022-08-11T11:34:52.911Z,94189.19
2022-08-11T11:37:23.856Z,94184.66
2022-08-11T11:39:51.400Z,94183.78
2022-08-11T11:42:19.061Z,94180.56
2022-08-11T11:44:48.142Z,94170.03
2022-08-11T11:47:21.711Z,94183.63
2022-08-11T11:49:49.699Z,94176.63
2022-08-11T11:52:19.752Z,94171.00
2022-08-11T11:54:50.545Z,94171.44
2022-08-11T11:57:37.279Z,94157.97
2022-08-11T12:00:25.268Z,94159.31
2022-08-11T12:03:02.740Z,94174.50
2022-08-11T12:05:33.686Z,94166.88
2022-08-11T12:08:16.231Z,94172.13
2022-08-11T12:11:18.424Z,94165.56
2022-08-11T12:13:47.205Z,94144.84
2022-08-11T12:16:34.668Z,94150.09
2022-08-11T12:19:06.169Z,94139.09
2022-08-11T12:21:35.239Z,94142.31
2022-08-11T12:27:20.907Z,94145.59
2022-08-11T12:29:57.392Z,94146.03
2022-08-11T12:32:30.719Z,94146.72
2022-08-11T12:34:58.047Z,94147.66
2022-08-11T12:37:30.512Z,94148.13
2022-08-11T12:40:43.076Z,94140.06
2022-08-11T12:43:37.397Z,94134.47
2022-08-11T12:46:29.640Z,94138.69
2022-08-11T12:49:19.679Z,94138.91
2022-08-11T12:52:12.068Z,94145.97
2022-08-11T12:54:59.971Z,94147.53
2022-08-11T12:57:52.597Z,94156.19
2022-08-11T13:00:38.606Z,94152.50
2022-08-11T13:03:26.825Z,94167.13
2022-08-11T13:05:57.270Z,94159.16
2022-08-11T13:08:26.567Z,94150.84
2022-08-11T13:11:13.373Z,94156.00
2022-08-11T13:13:55.084Z,94164.59
2022-08-11T13:16:52.743Z,94167.28
2022-08-11T13:19:21.237Z,94168.19
2022-08-11T13:21:52.497Z,94166.91
2022-08-11T13:24:21.781Z,94157.69
2022-08-11T13:26:50.762Z,94157.59
2022-08-11T13:29:28.959Z,94163.34
2022-08-11T13:31:58.416Z,94152.03
2022-08-11T13:34:27.348Z,94154.97
2022-08-11T13:36:58.032Z,94147.25
2022-08-11T13:39:28.415Z,94148.09
2022-08-11T13:41:57.305Z,94138.09
2022-08-11T13:44:30.027Z,94141.94
2022-08-11T13:47:01.359Z,94147.28
2022-08-11T13:49:31.500Z,94123.56
2022-08-11T13:51:59.181Z,94134.84
2022-08-11T13:54:30.181Z,94133.03
2022-08-11T13:57:01.081Z,94117.66
2022-08-11T13:59:29.750Z,94119.16
2022-08-11T14:02:21.587Z,94123.56
2022-08-11T14:04:58.514Z,94119.75
2022-08-11T14:07:35.626Z,94119.59
2022-08-11T14:10:04.552Z,94110.69
2022-08-11T14:12:52.261Z,94116.72
2022-08-11T14:15:35.062Z,94123.03
2022-08-11T14:18:08.220Z,94111.31
2022-08-11T14:21:02.047Z,94112.13
2022-08-11T14:23:37.857Z,94110.28
2022-08-11T14:26:26.255Z,94104.03
2022-08-11T14:29:05.124Z,94112.97
2022-08-11T14:31:34.098Z,94120.25
2022-08-11T14:34:06.535Z,94114.25
2022-08-11T14:36:39.563Z,94108.28
2022-08-11T14:39:16.009Z,94105.75
2022-08-11T14:42:12.511Z,94103.53
2022-08-11T14:45:06.262Z,94107.72
2022-08-11T14:47:35.961Z,94106.31
2022-08-11T14:50:11.305Z,94099.59
2022-08-11T14:52:52.073Z,94098.84
2022-08-11T14:55:39.628Z,94096.84
2022-08-11T14:58:09.979Z,94101.44
2022-08-11T15:00:37.616Z,94105.59
2022-08-11T15:03:13.436Z,94098.06
2022-08-11T15:05:57.398Z,94093.50
2022-08-11T15:08:49.006Z,94098.22
2022-08-11T15:11:36.716Z,94094.38
2022-08-11T15:14:06.174Z,94093.66
2022-08-11T15:16:53.406Z,94085.28
2022-08-11T15:19:21.676Z,94098.59
2022-08-11T15:22:08.359Z,94088.44
2022-08-11T15:24:36.672Z,94090.75
2022-08-11T15:27:30.966Z,94089.69
2022-08-11T15:30:33.020Z,94078.41
2022-08-11T15:33:23.497Z,94082.91
2022-08-11T15:36:11.170Z,94078.22
2022-08-11T15:38:44.532Z,94084.44
2022-08-11T15:41:36.091Z,94083.94
2022-08-11T15:44:44.716Z,94084.25
2022-08-11T15:47:14.445Z,94085.53
2022-08-11T15:50:11.502Z,94093.44
2022-08-11T15:52:35.790Z,94086.59
2022-08-11T15:55:08.625Z,94085.03
2022-08-11T15:57:57.276Z,94087.56
2022-08-11T16:00:43.602Z,94085.22
2022-08-11T16:04:06.249Z,94095.25
2022-08-11T16:06:18.391Z,94106.22
2022-08-11T16:08:46.108Z,94100.28
2022-08-11T16:11:13.952Z,94100.88
2022-08-11T16:13:41.229Z,94107.94
2022-08-11T16:16:16.582Z,94100.75
2022-08-11T16:18:51.533Z,94093.56
2022-08-11T16:21:33.838Z,94097.19
2022-08-11T16:24:06.203Z,94101.03
2022-08-11T16:27:11.020Z,94102.41
2022-08-11T16:29:25.394Z,94104.53
2022-08-11T16:32:14.455Z,94112.69
2022-08-11T16:35:02.937Z,94103.75
2022-08-11T16:37:52.618Z,94104.16
2022-08-11T16:40:22.617Z,94110.81
2022-08-11T16:43:11.391Z,94114.06
2022-08-11T16:45:59.452Z,94113.75
2022-08-11T16:48:37.498Z,94121.28
2022-08-11T16:51:06.802Z,94120.72
2022-08-11T16:53:59.510Z,94125.16
2022-08-11T16:56:28.854Z,94126.44
2022-08-11T16:59:16.660Z,94127.13
2022-08-11T17:02:05.148Z,94125.44
2022-08-11T17:04:59.788Z,94130.78
2022-08-11T17:07:47.792Z,94130.88
2022-08-11T17:10:53.415Z,94138.22
2022-08-11T17:13:33.899Z,94132.94
2022-08-11T17:16:10.217Z,94134.97
2022-08-11T17:18:48.424Z,94136.69
2022-08-11T17:21:33.761Z,94145.28
2022-08-11T17:24:09.263Z,94141.28
2022-08-11T17:26:57.227Z,94146.88
2022-08-11T17:29:53.692Z,94148.28
2022-08-11T17:33:00.671Z,94146.72
2022-08-11T17:35:38.582Z,94150.06
2022-08-11T17:38:21.642Z,94150.31
2022-08-11T17:41:23.105Z,94159.38
2022-08-11T17:44:12.795Z,94157.97
2022-08-11T17:47:05.167Z,94169.34
2022-08-11T17:49:37.706Z,94183.34
2022-08-11T17:52:25.261Z,94180.41
2022-08-11T17:55:13.437Z,94179.28
2022-08-11T17:58:00.194Z,94180.97
2022-08-11T18:00:27.579Z,94183.69
2022-08-11T18:03:16.327Z,94183.47
2022-08-11T18:05:46.000Z,94191.53
2022-08-11T18:08:32.860Z,94191.38
2022-08-11T18:12:05.812Z,94192.91
2022-08-11T18:14:27.597Z,94190.00
2022-08-11T18:17:13.253Z,94191.16
2022-08-11T18:19:58.807Z,94194.81
2022-08-11T18:22:49.838Z,94196.13
2022-08-11T18:25:49.383Z,94199.88
2022-08-11T18:28:40.422Z,94200.81
2022-08-11T18:31:30.386Z,94197.28
2022-08-11T18:34:20.438Z,94203.94
2022-08-11T18:37:29.125Z,94212.00
2022-08-11T18:40:22.675Z,94205.56
2022-08-11T18:43:09.523Z,94208.91
2022-08-11T18:46:06.249Z,94211.63
2022-08-11T18:48:54.921Z,94222.59
2022-08-11T18:51:42.894Z,94214.50
2022-08-11T18:54:30.246Z,94215.81
2022-08-11T18:57:20.055Z,94212.16
2022-08-11T19:00:07.259Z,94220.50
2022-08-11T19:02:56.464Z,94215.31
2022-08-11T19:06:32.350Z,94222.16
2022-08-11T19:08:53.786Z,94219.53
2022-08-11T19:11:43.583Z,94214.41
2022-08-11T19:14:31.384Z,94210.00
2022-08-11T19:17:44.053Z,94204.63
2022-08-11T19:20:29.312Z,94203.50
2022-08-11T19:23:15.818Z,94204.47
2022-08-11T19:26:03.844Z,94205.38
2022-08-11T19:28:52.114Z,94201.63
2022-08-11T19:31:43.764Z,94211.94
2022-08-11T19:34:34.888Z,94209.97
2022-08-11T19:37:24.776Z,94205.84
2022-08-11T19:40:17.874Z,94208.03
2022-08-11T19:43:18.582Z,94208.34
2022-08-11T19:46:13.623Z,94210.84
2022-08-11T19:49:01.748Z,94206.91
2022-08-11T19:51:47.972Z,94208.13
2022-08-11T19:54:42.332Z,94208.91
2022-08-11T19:57:27.904Z,94208.00
2022-08-11T20:00:13.292Z,94214.94
2022-08-11T20:02:58.456Z,94211.56
2022-08-11T20:05:55.655Z,94217.56
2022-08-11T20:08:45.656Z,94214.88
2022-08-11T20:11:33.630Z,94217.59
2022-08-11T20:14:20.814Z,94214.09
2022-08-11T20:17:06.735Z,94207.84
2022-08-11T20:19:57.115Z,94208.09
2022-08-11T20:22:45.664Z,94215.63
2022-08-11T20:25:31.955Z,94219.66
2022-08-11T20:28:17.379Z,94218.47
2022-08-11T20:31:04.499Z,94219.88
2022-08-11T20:33:51.538Z,94213.09
2022-08-11T20:36:37.024Z,94217.38
2022-08-11T20:39:24.388Z,94219.34
2022-08-11T20:42:11.142Z,94222.06
2022-08-11T20:44:57.938Z,94218.13
2022-08-11T20:47:59.588Z,94214.50
2022-08-11T20:50:47.725Z,94225.19
2022-08-11T20:53:39.326Z,94222.44
2022-08-11T20:56:28.548Z,94228.50
2022-08-11T20:59:18.681Z,94229.63
2022-08-11T21:02:09.452Z,94227.84
2022-08-11T21:04:56.525Z,94214.22
2022-08-11T21:07:55.525Z,94217.16
2022-08-11T21:10:50.625Z,94217.25
2022-08-11T21:13:39.250Z,94225.44
2022-08-11T21:16:27.312Z,94229.63
2022-08-11T21:19:55.037Z,94234.75
2022-08-11T21:22:28.296Z,94230.16
2022-08-11T21:25:16.337Z,94245.38
2022-08-11T21:28:04.072Z,94241.34
2022-08-11T21:30:50.366Z,94240.25
2022-08-11T21:33:37.084Z,94242.00
2022-08-11T21:36:26.265Z,94245.22
2022-08-11T21:39:12.296Z,94247.31
2022-08-11T21:41:58.574Z,94247.13
2022-08-11T21:44:45.604Z,94251.09
2022-08-11T21:47:43.499Z,94244.91
2022-08-11T21:50:29.934Z,94255.16
2022-08-11T21:53:16.509Z,94251.00
2022-08-11T21:56:03.179Z,94245.47
2022-08-11T21:58:49.534Z,94248.53
2022-08-11T22:01:35.728Z,94253.41
2022-08-11T22:04:23.148Z,94252.03
2022-08-11T22:07:09.969Z,94263.16
2022-08-11T22:09:56.044Z,94258.34
2022-08-11T22:12:45.015Z,94255.53
2022-08-11T22:15:31.276Z,94252.78
2022-08-11T22:18:16.970Z,94255.22
2022-08-11T22:21:03.291Z,94251.59
2022-08-11T22:23:54.991Z,94246.34
2022-08-11T22:26:42.266Z,94253.50
2022-08-11T22:29:50.079Z,94251.47
2022-08-11T22:32:37.899Z,94250.91
2022-08-11T22:35:24.729Z,94241.69
2022-08-11T22:38:15.940Z,94240.22
2022-08-11T22:41:01.734Z,94241.78
2022-08-11T22:43:47.358Z,94244.03
2022-08-11T22:46:35.571Z,94238.63
2022-08-11T22:49:21.437Z,94236.84
2022-08-11T22:52:08.963Z,94237.69
2022-08-11T22:54:55.208Z,94240.00
2022-08-11T22:57:41.108Z,94234.00
2022-08-11T23:00:47.071Z,94230.53
2022-08-11T23:03:37.737Z,94225.31
2022-08-11T23:06:24.375Z,94230.59
2022-08-11T23:09:11.084Z,94225.25
2022-08-11T23:12:06.964Z,94225.09
2022-08-11T23:14:57.362Z,94217.66
2022-08-11T23:17:43.725Z,94215.84
2022-08-11T23:20:42.203Z,94215.16
2022-08-11T23:23:37.629Z,94224.47
2022-08-11T23:26:23.129Z,94228.72
2022-08-11T23:29:08.423Z,94216.56
2022-08-11T23:31:55.801Z,94224.16
2022-08-11T23:35:04.473Z,94228.22
2022-08-11T23:37:51.054Z,94218.25
2022-08-11T23:40:36.698Z,94223.47
2022-08-11T23:43:22.458Z,94223.53
2022-08-11T23:46:07.693Z,94228.28
2022-08-11T23:48:55.443Z,94224.88
2022-08-11T23:51:41.655Z,94227.97
2022-08-11T23:54:31.555Z,94222.84
2022-08-11T23:57:20.754Z,94222.66
